Time;durP1;ratioP1;P1;durP2;ratioP2;P2;SDS_P1;SDS_P2;PMS_P1;PMS_P2;Temp;Humidity;BMP_temperature;BMP_pressure;BME280_temperature;BME280_humidity;BME280_pressure;Samples;Min_cycle;Max_cycle;Signal;HPM_P1;HPM_P2
2022/09/15 00:00:24;;;;;;;5.40;3.05;;;12.50;99.90;;;;;;5076886;28;20150;-60
2022/09/15 00:02:49;;;;;;;3.97;2.67;;;12.50;99.90;;;;;;5079759;28;20058;-60
2022/09/15 00:05:15;;;;;;;6.68;3.05;;;12.50;99.90;;;;;;5076828;28;20131;-61
2022/09/15 00:07:41;;;;;;;3.92;2.90;;;12.50;99.90;;;;;;5078104;28;20119;-60
2022/09/15 00:10:08;;;;;;;6.82;3.25;;;12.50;99.90;;;;;;5081035;28;20044;-61
2022/09/15 00:12:34;;;;;;;4.88;3.00;;;12.50;99.90;;;;;;5084829;28;20034;-61
2022/09/15 00:14:59;;;;;;;5.90;3.10;;;12.50;99.90;;;;;;5081330;28;20050;-60
2022/09/15 00:17:25;;;;;;;5.10;3.17;;;12.50;99.90;;;;;;5076003;28;20055;-60
2022/09/15 00:19:51;;;;;;;4.85;3.10;;;12.50;99.90;;;;;;5083816;28;20568;-60
2022/09/15 00:22:18;;;;;;;5.65;3.25;;;12.60;99.90;;;;;;5078111;28;20048;-60
2022/09/15 00:24:45;;;;;;;8.38;3.70;;;12.70;99.90;;;;;;5077366;28;20048;-60
2022/09/15 00:27:10;;;;;;;6.78;3.40;;;12.70;99.90;;;;;;5087159;28;20047;-61
2022/09/15 00:29:36;;;;;;;5.18;3.47;;;12.80;99.90;;;;;;5078452;28;20529;-61
2022/09/15 00:32:03;;;;;;;9.70;3.53;;;12.90;99.90;;;;;;5085621;28;20124;-61
2022/09/15 00:34:28;;;;;;;6.25;3.35;;;12.90;99.90;;;;;;5077392;28;20367;-60
2022/09/15 00:36:54;;;;;;;5.13;3.70;;;12.90;99.90;;;;;;5082625;28;20031;-61
2022/09/15 00:39:19;;;;;;;7.10;3.70;;;13.00;99.90;;;;;;5076016;28;20044;-61
2022/09/15 00:41:45;;;;;;;7.32;3.90;;;13.00;99.90;;;;;;5078221;28;20047;-61
2022/09/15 00:44:35;;;;;;;6.60;4.38;;;13.00;99.90;;;;;;5076883;28;20055;-61
2022/09/15 00:47:02;;;;;;;5.65;3.58;;;13.10;99.90;;;;;;5084225;28;20040;-60
2022/09/15 00:49:32;;;;;;;5.05;3.85;;;13.10;99.90;;;;;;5080800;28;20048;-61
2022/09/15 00:52:01;;;;;;;8.73;4.05;;;13.20;99.90;;;;;;5084821;28;20039;-60
2022/09/15 00:54:47;;;;;;;5.95;4.00;;;13.20;99.90;;;;;;5073263;28;20044;-61
2022/09/15 00:57:30;;;;;;;6.72;4.53;;;13.20;99.90;;;;;;5078617;28;20149;-60
2022/09/15 01:00:01;;;;;;;8.68;4.30;;;13.20;99.90;;;;;;5080732;28;20081;-60
2022/09/15 01:02:29;;;;;;;5.50;3.90;;;13.30;99.90;;;;;;5078068;28;21908;-60
2022/09/15 01:04:56;;;;;;;9.45;4.68;;;13.30;99.90;;;;;;5081348;28;21958;-60
2022/09/15 01:07:38;;;;;;;7.95;3.70;;;13.30;99.90;;;;;;5077773;28;22423;-60
2022/09/15 01:10:26;;;;;;;5.72;3.20;;;13.40;99.90;;;;;;5078631;28;20147;-60
2022/09/15 01:12:55;;;;;;;9.40;4.28;;;13.40;99.90;;;;;;5082985;28;20039;-61
2022/09/15 01:15:24;;;;;;;4.53;3.58;;;13.40;99.90;;;;;;5074155;28;20387;-61
2022/09/15 01:18:24;;;;;;;7.32;4.20;;;13.50;99.90;;;;;;5080759;28;20449;-62
2022/09/15 01:21:17;;;;;;;7.15;4.03;;;13.50;99.90;;;;;;5080342;28;20526;-60
2022/09/15 01:24:13;;;;;;;8.70;3.72;;;13.50;99.90;;;;;;5077449;28;20055;-61
2022/09/15 01:27:16;;;;;;;5.90;4.07;;;13.50;99.90;;;;;;5083397;28;20040;-60
2022/09/15 01:30:02;;;;;;;8.05;4.70;;;13.50;99.90;;;;;;5081309;28;20101;-62
2022/09/15 01:33:04;;;;;;;7.65;3.90;;;13.60;99.90;;;;;;5079490;28;20052;-62
2022/09/15 01:35:49;;;;;;;7.05;4.75;;;13.60;99.90;;;;;;5078355;28;20115;-60
2022/09/15 01:38:42;;;;;;;9.73;4.40;;;13.60;99.90;;;;;;5082067;28;20119;-60
2022/09/15 01:41:16;;;;;;;6.80;4.53;;;13.60;99.90;;;;;;5079707;28;20138;-61
2022/09/15 01:44:02;;;;;;;12.93;4.15;;;13.60;99.90;;;;;;5073981;28;20055;-61
2022/09/15 01:46:33;;;;;;;6.72;4.25;;;13.60;99.90;;;;;;5081708;28;20052;-62
2022/09/15 01:49:02;;;;;;;6.22;4.60;;;13.70;99.90;;;;;;5082614;28;20039;-61
2022/09/15 01:51:30;;;;;;;6.13;4.43;;;13.70;99.90;;;;;;5080538;28;20036;-61
2022/09/15 01:53:58;;;;;;;8.52;4.28;;;13.70;99.90;;;;;;5081881;28;20028;-61
2022/09/15 01:56:24;;;;;;;6.90;4.32;;;13.70;99.90;;;;;;5081941;28;20352;-61
2022/09/15 01:58:50;;;;;;;7.57;4.38;;;13.70;99.90;;;;;;5073598;28;20055;-61
2022/09/15 02:01:43;;;;;;;8.35;4.60;;;13.70;99.90;;;;;;5074414;28;20478;-62
2022/09/15 02:04:28;;;;;;;7.50;4.63;;;13.70;99.90;;;;;;5073266;28;20098;-60
2022/09/15 02:07:10;;;;;;;7.72;4.57;;;13.70;99.90;;;;;;5075779;28;20044;-61
2022/09/15 02:09:42;;;;;;;7.75;4.63;;;13.70;99.90;;;;;;5083150;28;20043;-60
2022/09/15 02:12:22;;;;;;;8.90;5.18;;;13.70;99.90;;;;;;5081735;28;20131;-61
2022/09/15 02:14:56;;;;;;;8.98;4.65;;;13.80;99.90;;;;;;5078427;28;20047;-61
2022/09/15 02:17:27;;;;;;;12.05;4.32;;;13.70;99.90;;;;;;5081514;28;20036;-61
2022/09/15 02:20:01;;;;;;;6.32;4.03;;;13.70;99.90;;;;;;5088434;28;20677;-61
2022/09/15 02:22:30;;;;;;;5.93;4.00;;;13.80;99.90;;;;;;5085888;28;20063;-61
2022/09/15 02:25:01;;;;;;;9.40;3.95;;;13.70;99.90;;;;;;5081271;28;20111;-61
2022/09/15 02:27:31;;;;;;;8.20;4.28;;;13.70;99.90;;;;;;5083545;28;20031;-61
2022/09/15 02:30:05;;;;;;;8.53;3.67;;;13.70;99.90;;;;;;5091022;28;20036;-61
2022/09/15 02:32:33;;;;;;;8.80;3.90;;;13.70;99.90;;;;;;5081170;28;20081;-60
2022/09/15 02:35:05;;;;;;;8.27;3.55;;;13.70;99.90;;;;;;5086759;28;20043;-60
2022/09/15 02:37:33;;;;;;;10.05;4.03;;;13.70;99.90;;;;;;5087770;28;20479;-60
2022/09/15 02:39:59;;;;;;;5.25;3.10;;;13.70;99.90;;;;;;5080168;28;20040;-60
2022/09/15 02:42:27;;;;;;;5.45;3.60;;;13.70;99.90;;;;;;5087714;28;20074;-61
2022/09/15 02:44:53;;;;;;;6.97;2.78;;;13.70;99.90;;;;;;5080903;28;20038;-60
2022/09/15 02:47:18;;;;;;;4.88;2.75;;;13.80;99.90;;;;;;5083228;28;20036;-61
2022/09/15 02:49:44;;;;;;;7.75;2.20;;;13.80;99.90;;;;;;5082934;28;20089;-61
2022/09/15 02:52:10;;;;;;;5.93;2.50;;;13.80;99.90;;;;;;5080737;28;20040;-62
2022/09/15 02:54:36;;;;;;;7.72;2.20;;;13.90;99.90;;;;;;5088106;28;20028;-61
2022/09/15 02:57:02;;;;;;;7.55;2.03;;;13.90;99.90;;;;;;5085469;28;20130;-61
2022/09/15 03:00:11;;;;;;;8.45;2.33;;;13.90;99.90;;;;;;5084374;28;21068;-61
2022/09/15 03:02:13;;;;;;;6.63;1.80;;;13.90;99.90;;;;;;5084719;28;20175;-61
2022/09/15 03:04:39;;;;;;;9.57;2.10;;;13.90;99.90;;;;;;5084828;28;20115;-61
2022/09/15 03:07:04;;;;;;;6.72;1.70;;;13.90;99.90;;;;;;5089551;28;20032;-60
2022/09/15 03:09:30;;;;;;;7.03;1.50;;;13.90;99.90;;;;;;5083260;28;20123;-61
2022/09/15 03:11:55;;;;;;;3.90;1.40;;;13.90;99.90;;;;;;5082823;28;20054;-61
2022/09/15 03:14:21;;;;;;;5.50;1.20;;;13.90;99.90;;;;;;5084370;28;20119;-61
2022/09/15 03:16:46;;;;;;;3.05;1.00;;;13.90;99.90;;;;;;5088378;28;20063;-61
2022/09/15 03:19:12;;;;;;;7.90;1.15;;;13.90;99.90;;;;;;5086072;28;20052;-60
2022/09/15 03:21:37;;;;;;;4.88;1.27;;;13.90;99.90;;;;;;5085377;28;20039;-60
2022/09/15 03:24:03;;;;;;;5.13;1.20;;;13.90;99.90;;;;;;5088002;28;20044;-61
2022/09/15 03:26:29;;;;;;;5.00;1.10;;;13.90;99.90;;;;;;5082661;28;20049;-60
2022/09/15 03:28:55;;;;;;;4.70;0.98;;;13.90;99.90;;;;;;5088710;28;20032;-61
2022/09/15 03:31:21;;;;;;;5.32;1.30;;;13.90;99.90;;;;;;5081550;28;20097;-59
2022/09/15 03:33:47;;;;;;;3.42;1.15;;;13.90;99.90;;;;;;5081912;28;20032;-60
2022/09/15 03:36:13;;;;;;;4.50;1.00;;;13.80;99.90;;;;;;5080481;28;20028;-60
2022/09/15 03:38:38;;;;;;;5.32;1.02;;;13.80;99.90;;;;;;5086684;28;20483;-60
2022/09/15 03:41:14;;;;;;;5.28;1.20;;;13.80;99.90;;;;;;5085829;28;20028;-60
2022/09/15 03:43:40;;;;;;;5.55;1.02;;;13.80;99.90;;;;;;5079085;28;20040;-60
2022/09/15 03:46:07;;;;;;;13.88;1.48;;;13.80;99.90;;;;;;5076965;28;20032;-60
2022/09/15 03:48:34;;;;;;;5.47;1.10;;;13.80;99.90;;;;;;5087736;28;20055;-61
2022/09/15 03:51:01;;;;;;;4.07;0.82;;;13.80;99.90;;;;;;5081139;28;20041;-60
2022/09/15 03:53:26;;;;;;;5.28;1.38;;;13.80;99.90;;;;;;5085474;28;20050;-61
2022/09/15 03:55:52;;;;;;;2.42;1.20;;;13.80;99.90;;;;;;5082245;28;20489;-60
2022/09/15 03:58:18;;;;;;;5.43;1.23;;;13.70;99.90;;;;;;5086912;28;20065;-60
2022/09/15 04:00:45;;;;;;;7.47;1.10;;;13.80;99.90;;;;;;5079672;28;20120;-61
2022/09/15 04:03:10;;;;;;;4.18;0.90;;;13.80;99.90;;;;;;5082104;28;20101;-61
2022/09/15 04:05:37;;;;;;;5.63;1.10;;;13.80;99.90;;;;;;5083687;28;20048;-61
2022/09/15 04:08:04;;;;;;;4.93;1.02;;;13.70;99.90;;;;;;5083022;28;20541;-61
2022/09/15 04:10:30;;;;;;;5.13;1.10;;;13.80;99.90;;;;;;5079175;28;20132;-60
2022/09/15 04:12:56;;;;;;;6.22;0.98;;;13.80;99.90;;;;;;5081966;28;21659;-60
2022/09/15 04:15:21;;;;;;;7.22;1.02;;;13.80;99.90;;;;;;5085859;28;20131;-60
2022/09/15 04:17:47;;;;;;;5.93;1.00;;;13.70;99.90;;;;;;5086758;28;20058;-61
2022/09/15 04:20:13;;;;;;;3.28;0.90;;;13.70;99.90;;;;;;5086496;28;20044;-61
2022/09/15 04:22:39;;;;;;;5.75;1.10;;;13.70;99.90;;;;;;5085103;28;20037;-62
2022/09/15 04:25:05;;;;;;;7.05;1.35;;;13.80;99.90;;;;;;5084515;28;20056;-61
2022/09/15 04:27:34;;;;;;;6.03;1.00;;;13.70;99.90;;;;;;5082636;28;20044;-60
2022/09/15 04:30:00;;;;;;;8.65;1.10;;;13.70;99.90;;;;;;5083762;28;20040;-61
2022/09/15 04:32:28;;;;;;;5.43;1.27;;;13.70;99.90;;;;;;5084458;28;20501;-60
2022/09/15 04:34:54;;;;;;;4.97;1.00;;;13.70;99.90;;;;;;5079059;28;20067;-61
2022/09/15 04:37:20;;;;;;;4.60;1.20;;;13.70;99.90;;;;;;5081448;28;20027;-61
2022/09/15 04:39:46;;;;;;;4.05;0.98;;;13.60;99.90;;;;;;5084827;28;20453;-61
2022/09/15 04:42:12;;;;;;;4.60;1.00;;;13.60;99.90;;;;;;5081512;28;20028;-60
2022/09/15 04:44:37;;;;;;;4.82;1.00;;;13.60;99.90;;;;;;5081985;28;20113;-60
2022/09/15 04:47:03;;;;;;;5.07;1.02;;;13.60;99.90;;;;;;5085474;28;20038;-60
2022/09/15 04:49:29;;;;;;;5.18;1.65;;;13.60;99.90;;;;;;5080658;28;20028;-62
2022/09/15 04:51:55;;;;;;;6.70;1.05;;;13.60;99.90;;;;;;5068262;28;20122;-61
2022/09/15 04:54:20;;;;;;;6.60;1.15;;;13.50;99.90;;;;;;5071745;28;20123;-62
2022/09/15 04:56:47;;;;;;;5.88;1.17;;;13.40;99.90;;;;;;5078394;28;20055;-60
2022/09/15 04:59:16;;;;;;;2.05;0.80;;;13.40;99.90;;;;;;5080858;28;20040;-62
2022/09/15 05:01:42;;;;;;;7.85;1.40;;;13.30;99.90;;;;;;5064570;28;20052;-61
2022/09/15 05:04:08;;;;;;;3.45;1.00;;;13.30;99.90;;;;;;5080634;28;20101;-60
2022/09/15 05:06:34;;;;;;;5.35;1.02;;;13.30;99.90;;;;;;5064903;28;20044;-61
2022/09/15 05:09:00;;;;;;;3.72;1.27;;;13.30;99.90;;;;;;5077456;28;20037;-61
2022/09/15 05:11:27;;;;;;;5.50;1.10;;;13.30;99.90;;;;;;5074760;28;20029;-61
2022/09/15 05:13:53;;;;;;;6.97;1.50;;;13.30;99.90;;;;;;5079684;28;20032;-62
2022/09/15 05:16:24;;;;;;;5.15;1.10;;;13.40;99.90;;;;;;5081704;28;20559;-61
2022/09/15 05:18:51;;;;;;;4.68;1.05;;;13.40;99.90;;;;;;5083939;28;20040;-61
2022/09/15 05:21:19;;;;;;;5.15;1.38;;;13.40;99.90;;;;;;5076398;28;20470;-61
2022/09/15 05:23:46;;;;;;;3.65;1.10;;;13.40;99.90;;;;;;5077659;28;20039;-60
2022/09/15 05:26:15;;;;;;;4.55;1.23;;;13.40;99.90;;;;;;5081627;28;20036;-61
2022/09/15 05:28:41;;;;;;;6.63;1.40;;;13.50;99.90;;;;;;5078581;28;20548;-61
2022/09/15 05:31:09;;;;;;;4.82;1.17;;;13.50;99.90;;;;;;5083215;28;20134;-62
2022/09/15 05:33:34;;;;;;;6.80;1.27;;;13.50;99.90;;;;;;5084382;28;20035;-62
2022/09/15 05:36:00;;;;;;;5.55;1.02;;;13.50;99.90;;;;;;5078215;28;20048;-62
2022/09/15 05:38:28;;;;;;;5.90;2.10;;;13.50;99.90;;;;;;5083444;28;20181;-61
2022/09/15 05:41:00;;;;;;;3.67;1.33;;;13.50;99.90;;;;;;5081311;28;20048;-61
2022/09/15 05:43:28;;;;;;;4.25;1.05;;;13.50;99.90;;;;;;5074640;28;20043;-61
2022/09/15 05:45:54;;;;;;;3.55;0.80;;;13.50;99.90;;;;;;5077424;28;20420;-60
2022/09/15 05:48:19;;;;;;;9.60;1.23;;;13.50;99.90;;;;;;5076221;28;20047;-61
2022/09/15 05:50:50;;;;;;;8.80;1.52;;;13.40;99.90;;;;;;5081477;28;20074;-61
2022/09/15 05:53:15;;;;;;;4.82;1.00;;;13.30;99.90;;;;;;5082993;28;20032;-61
2022/09/15 05:55:41;;;;;;;6.00;1.35;;;13.30;99.90;;;;;;5078039;28;20422;-61
2022/09/15 05:58:07;;;;;;;6.47;1.15;;;13.30;99.90;;;;;;5082973;28;20052;-60
2022/09/15 06:00:32;;;;;;;5.05;1.23;;;13.30;99.90;;;;;;5086003;28;20542;-61
2022/09/15 06:02:58;;;;;;;7.38;1.63;;;13.30;99.90;;;;;;5082992;28;20062;-61
2022/09/15 06:05:24;;;;;;;7.95;1.20;;;13.40;99.90;;;;;;5082083;28;20040;-60
2022/09/15 06:07:52;;;;;;;5.90;1.42;;;13.40;99.90;;;;;;5090425;28;20174;-61
2022/09/15 06:10:18;;;;;;;5.80;1.02;;;13.50;99.90;;;;;;5082655;28;20495;-61
2022/09/15 06:12:47;;;;;;;4.50;1.08;;;13.60;99.90;;;;;;5086226;28;20527;-61
2022/09/15 06:15:13;;;;;;;5.82;1.25;;;13.70;99.90;;;;;;5084977;28;20475;-60
2022/09/15 06:17:38;;;;;;;3.33;1.00;;;13.80;99.90;;;;;;5086393;28;20047;-61
2022/09/15 06:20:05;;;;;;;6.95;1.10;;;13.80;99.90;;;;;;5082644;28;20036;-61
2022/09/15 06:22:32;;;;;;;9.30;1.40;;;13.90;99.90;;;;;;5078927;28;20036;-61
2022/09/15 06:24:58;;;;;;;5.05;1.10;;;14.00;99.90;;;;;;5089723;28;20489;-61
2022/09/15 06:27:24;;;;;;;4.60;1.10;;;14.00;99.90;;;;;;5085691;28;20088;-62
2022/09/15 06:29:50;;;;;;;4.72;1.00;;;14.00;99.90;;;;;;5079727;28;20119;-61
2022/09/15 06:32:15;;;;;;;4.40;1.48;;;14.10;99.90;;;;;;5088800;28;20055;-61
2022/09/15 06:34:41;;;;;;;4.38;0.88;;;14.10;99.90;;;;;;5088946;28;20028;-62
2022/09/15 06:37:07;;;;;;;5.45;1.02;;;14.20;99.90;;;;;;5091634;28;20050;-62
2022/09/15 06:39:32;;;;;;;4.28;0.90;;;14.20;99.90;;;;;;5090974;28;20032;-61
2022/09/15 06:41:58;;;;;;;6.60;1.23;;;14.20;99.90;;;;;;5091467;28;20044;-61
2022/09/15 06:44:23;;;;;;;3.88;0.90;;;14.30;99.90;;;;;;5092115;28;20044;-61
2022/09/15 06:46:49;;;;;;;5.88;1.05;;;14.40;99.90;;;;;;5086047;28;20036;-62
2022/09/15 06:49:15;;;;;;;5.93;1.10;;;14.40;99.90;;;;;;5082949;28;20075;-61
2022/09/15 06:51:40;;;;;;;8.07;1.17;;;14.50;99.90;;;;;;5082215;28;20066;-61
2022/09/15 06:54:06;;;;;;;4.43;1.20;;;14.60;99.90;;;;;;5081994;28;20036;-60
2022/09/15 06:56:32;;;;;;;6.20;1.10;;;14.70;99.90;;;;;;5074677;28;20036;-61
2022/09/15 06:58:58;;;;;;;6.22;1.17;;;14.70;99.90;;;;;;5079987;28;20028;-61
2022/09/15 07:01:27;;;;;;;4.40;0.95;;;14.70;99.90;;;;;;5090185;28;20040;-61
2022/09/15 07:03:53;;;;;;;8.85;1.20;;;14.80;99.90;;;;;;5086770;28;20102;-61
2022/09/15 07:06:19;;;;;;;7.15;1.30;;;14.80;99.90;;;;;;5080771;28;20383;-61
2022/09/15 07:08:45;;;;;;;6.55;1.30;;;14.90;99.90;;;;;;5084198;28;20041;-62
2022/09/15 07:11:11;;;;;;;3.55;1.00;;;15.00;99.90;;;;;;5079089;28;20043;-61
2022/09/15 07:13:37;;;;;;;5.55;1.08;;;15.20;99.90;;;;;;5080386;28;20039;-62
2022/09/15 07:16:05;;;;;;;4.32;1.00;;;15.30;99.90;;;;;;5092260;28;20047;-62
2022/09/15 07:18:31;;;;;;;5.00;0.82;;;15.40;99.90;;;;;;5085123;28;20047;-62
2022/09/15 07:21:03;;;;;;;6.55;1.05;;;15.50;99.90;;;;;;5090145;28;20040;-61
2022/09/15 07:23:29;;;;;;;2.70;1.00;;;15.60;99.90;;;;;;5082172;28;20118;-62
2022/09/15 07:26:13;;;;;;;5.28;1.10;;;15.70;99.90;;;;;;5085404;28;20663;-62
2022/09/15 07:28:41;;;;;;;3.08;0.80;;;15.80;99.90;;;;;;5089771;28;20086;-61
2022/09/15 07:31:08;;;;;;;4.97;0.93;;;15.90;99.90;;;;;;5094142;28;20054;-62
2022/09/15 07:33:34;;;;;;;5.18;1.30;;;15.90;99.90;;;;;;5090063;28;20059;-62
2022/09/15 07:36:02;;;;;;;4.25;1.30;;;16.00;99.90;;;;;;5089717;28;20519;-62
2022/09/15 07:38:27;;;;;;;4.03;0.98;;;16.10;99.90;;;;;;5093142;28;20490;-61
2022/09/15 07:40:53;;;;;;;5.70;1.30;;;16.20;99.90;;;;;;5093397;28;20039;-61
2022/09/15 07:43:19;;;;;;;4.70;0.82;;;16.30;99.90;;;;;;5074368;28;20116;-62
2022/09/15 07:45:45;;;;;;;3.83;0.93;;;16.40;99.90;;;;;;5075693;28;20085;-61
2022/09/15 07:48:11;;;;;;;6.15;0.80;;;16.40;99.90;;;;;;5073423;28;20048;-62
2022/09/15 07:50:36;;;;;;;7.43;1.70;;;16.60;99.90;;;;;;5086062;28;20047;-62
2022/09/15 07:53:02;;;;;;;6.88;1.02;;;16.70;99.90;;;;;;5091009;28;20035;-61
2022/09/15 07:55:29;;;;;;;3.10;0.68;;;16.80;99.90;;;;;;5091078;28;20062;-61
2022/09/15 07:58:02;;;;;;;3.42;0.75;;;17.00;99.90;;;;;;5089530;28;20555;-61
2022/09/15 08:00:28;;;;;;;6.20;1.08;;;17.10;99.60;;;;;;5083468;28;20044;-62
2022/09/15 08:02:54;;;;;;;5.43;1.08;;;17.20;99.90;;;;;;5091559;28;20052;-63
2022/09/15 08:05:20;;;;;;;4.75;1.10;;;17.30;99.90;;;;;;5090224;28;20097;-61
2022/09/15 08:07:46;;;;;;;4.93;1.27;;;17.40;99.60;;;;;;5088938;28;20114;-62
2022/09/15 08:10:11;;;;;;;6.55;1.38;;;17.40;99.80;;;;;;5089566;28;20451;-61
2022/09/15 08:12:37;;;;;;;5.65;1.08;;;17.40;99.20;;;;;;5091373;28;20032;-62
2022/09/15 08:15:04;;;;;;;5.80;0.90;;;17.50;99.10;;;;;;5091998;28;20036;-61
2022/09/15 08:17:29;;;;;;;6.15;0.98;;;17.60;98.90;;;;;;5091249;28;20403;-62
2022/09/15 08:19:55;;;;;;;2.78;0.82;;;17.70;98.70;;;;;;5088748;28;20043;-62
2022/09/15 08:22:20;;;;;;;3.83;0.75;;;17.80;98.60;;;;;;5089882;28;20036;-62
2022/09/15 08:24:46;;;;;;;3.92;0.70;;;17.70;97.90;;;;;;5086819;28;20040;-62
2022/09/15 08:27:11;;;;;;;4.88;0.85;;;17.70;97.60;;;;;;5091532;28;20051;-62
2022/09/15 08:29:37;;;;;;;5.65;1.20;;;17.70;97.60;;;;;;5090356;28;20093;-62
2022/09/15 08:32:03;;;;;;;3.60;0.70;;;17.70;97.00;;;;;;5090989;28;20032;-62
2022/09/15 08:34:29;;;;;;;2.33;0.77;;;17.60;97.10;;;;;;5090931;28;20090;-62
2022/09/15 08:36:55;;;;;;;1.90;0.70;;;17.50;97.20;;;;;;5088674;28;20036;-62
2022/09/15 08:39:21;;;;;;;4.80;0.85;;;17.30;97.10;;;;;;5090116;28;20074;-61
2022/09/15 08:41:50;;;;;;;3.45;0.80;;;17.10;97.10;;;;;;5089728;28;20050;-61
2022/09/15 08:44:21;;;;;;;3.53;0.70;;;17.20;97.30;;;;;;5090706;28;20044;-62
2022/09/15 08:47:11;;;;;;;4.00;1.02;;;17.40;97.00;;;;;;5093181;28;20056;-62
2022/09/15 08:49:43;;;;;;;4.13;0.80;;;17.50;95.70;;;;;;5077633;28;20052;-62
2022/09/15 08:52:40;;;;;;;4.13;0.80;;;17.70;96.50;;;;;;5087712;28;20502;-61
2022/09/15 08:55:25;;;;;;;4.80;1.00;;;18.40;95.70;;;;;;5070373;28;20059;-62
2022/09/15 08:57:54;;;;;;;9.27;0.80;;;18.90;95.10;;;;;;5067321;28;20128;-62
2022/09/15 09:00:20;;;;;;;4.90;0.80;;;19.20;95.20;;;;;;5088826;28;20028;-62
2022/09/15 09:03:05;;;;;;;5.28;0.80;;;19.40;94.90;;;;;;5089040;28;20056;-62
2022/09/15 09:05:44;;;;;;;4.03;0.85;;;19.40;93.50;;;;;;5090309;28;20115;-61
2022/09/15 09:08:55;;;;;;;5.60;1.00;;;19.50;92.60;;;;;;5088642;28;20640;-63
2022/09/15 09:11:56;;;;;;;2.03;0.63;;;19.60;92.10;;;;;;5084324;28;20082;-63
2022/09/15 09:14:57;;;;;;;2.42;0.50;;;19.50;92.50;;;;;;5072346;28;20112;-62
2022/09/15 09:17:46;;;;;;;4.05;0.63;;;19.40;92.90;;;;;;5090048;28;20138;-62
2022/09/15 09:20:30;;;;;;;6.05;1.40;;;19.30;93.30;;;;;;5089059;28;20068;-63
2022/09/15 09:23:00;;;;;;;4.50;0.90;;;19.30;93.30;;;;;;5088629;28;20051;-62
2022/09/15 09:25:25;;;;;;;2.08;0.70;;;19.10;93.30;;;;;;5088760;28;20443;-62
2022/09/15 09:27:52;;;;;;;9.55;0.90;;;19.20;93.00;;;;;;5090615;28;20124;-62
2022/09/15 09:30:21;;;;;;;2.85;0.80;;;19.10;93.10;;;;;;5089627;28;20383;-62
2022/09/15 09:33:17;;;;;;;4.15;0.85;;;19.00;93.60;;;;;;5089925;28;20075;-63
2022/09/15 09:35:51;;;;;;;4.53;0.88;;;18.40;95.30;;;;;;5089529;28;20375;-63
2022/09/15 09:38:25;;;;;;;3.30;0.95;;;17.90;96.30;;;;;;5088831;28;20463;-62
2022/09/15 09:40:51;;;;;;;5.90;1.05;;;17.70;97.20;;;;;;5086411;28;20044;-62
2022/09/15 09:43:16;;;;;;;5.60;0.90;;;17.50;98.40;;;;;;5088974;28;20581;-62
2022/09/15 09:45:42;;;;;;;4.40;0.80;;;17.50;98.90;;;;;;5083485;28;20074;-62
2022/09/15 09:48:27;;;;;;;3.78;0.73;;;17.60;99.10;;;;;;5089563;28;20067;-62
2022/09/15 09:50:54;;;;;;;2.85;0.85;;;17.70;99.00;;;;;;5087948;28;20124;-63
2022/09/15 09:53:30;;;;;;;3.45;1.20;;;17.90;99.10;;;;;;5088998;28;20477;-62
2022/09/15 09:56:23;;;;;;;5.22;1.10;;;18.10;99.00;;;;;;5090656;28;20597;-62
2022/09/15 09:58:50;;;;;;;5.15;1.02;;;18.40;98.80;;;;;;5088709;28;20054;-62
2022/09/15 10:01:18;;;;;;;2.70;0.90;;;18.60;98.40;;;;;;5087411;28;20044;-63
2022/09/15 10:03:44;;;;;;;4.90;1.08;;;18.80;98.00;;;;;;5084579;28;20736;-63
2022/09/15 10:06:17;;;;;;;4.63;0.90;;;19.00;97.50;;;;;;5070902;28;20092;-62
2022/09/15 10:08:58;;;;;;;3.40;1.00;;;19.10;97.10;;;;;;5080336;28;20123;-62
2022/09/15 10:11:48;;;;;;;5.95;1.00;;;19.10;96.30;;;;;;5086394;28;20098;-62
2022/09/15 10:14:31;;;;;;;6.30;0.80;;;18.90;96.30;;;;;;5090639;28;20511;-62
2022/09/15 10:17:17;;;;;;;4.10;0.80;;;18.80;96.40;;;;;;5089926;28;20087;-63
2022/09/15 10:19:57;;;;;;;6.47;0.98;;;18.50;97.90;;;;;;5086813;28;20395;-62
2022/09/15 10:22:32;;;;;;;4.03;1.03;;;17.90;98.90;;;;;;5071974;28;20040;-62
2022/09/15 10:25:00;;;;;;;6.45;1.17;;;17.50;99.90;;;;;;5089393;28;20294;-63
2022/09/15 10:27:30;;;;;;;3.08;1.05;;;17.50;99.90;;;;;;5090102;28;20135;-63
2022/09/15 10:30:14;;;;;;;3.45;0.90;;;17.50;99.90;;;;;;5089683;28;20036;-63
2022/09/15 10:32:41;;;;;;;4.95;0.75;;;17.70;99.90;;;;;;5090766;28;20054;-63
2022/09/15 10:35:17;;;;;;;5.22;1.50;;;17.90;99.90;;;;;;5091860;28;20482;-63
2022/09/15 10:38:07;;;;;;;5.93;1.10;;;18.10;99.60;;;;;;5091572;28;20434;-63
2022/09/15 10:40:49;;;;;;;5.50;1.17;;;18.30;99.90;;;;;;5094123;28;20044;-63
2022/09/15 10:43:28;;;;;;;5.18;0.90;;;18.50;99.90;;;;;;5081616;28;20043;-62
2022/09/15 10:46:15;;;;;;;2.65;0.85;;;18.50;98.70;;;;;;5087874;28;20040;-63
2022/09/15 10:48:59;;;;;;;1.58;0.50;;;18.60;97.90;;;;;;5091081;28;20051;-62
2022/09/15 10:51:24;;;;;;;2.67;0.63;;;18.60;96.80;;;;;;5094204;28;20032;-62
2022/09/15 10:54:03;;;;;;;1.85;0.40;;;18.60;96.60;;;;;;5088767;28;20106;-62
2022/09/15 10:56:31;;;;;;;3.25;0.52;;;18.60;95.10;;;;;;5086168;28;20115;-62
2022/09/15 10:59:20;;;;;;;2.78;0.50;;;18.70;95.40;;;;;;5088988;28;20085;-61
2022/09/15 11:02:13;;;;;;;3.28;0.60;;;18.90;94.10;;;;;;5093659;28;20128;-62
2022/09/15 11:04:48;;;;;;;2.22;0.50;;;19.40;93.30;;;;;;5074072;28;20043;-62
2022/09/15 11:07:28;;;;;;;1.52;0.60;;;19.60;92.10;;;;;;5079722;28;20112;-63
2022/09/15 11:10:03;;;;;;;;;;;19.60;91.10;;;;;;5077499;28;20120;-62
2022/09/15 11:12:57;;;;;;;2.92;0.40;;;19.90;90.10;;;;;;5085972;28;19943;-62
2022/09/15 11:15:32;;;;;;;3.28;0.60;;;20.10;90.60;;;;;;5089230;28;20040;-62
2022/09/15 11:18:24;;;;;;;3.78;0.70;;;20.10;90.20;;;;;;5092294;28;20079;-62
2022/09/15 11:20:57;;;;;;;4.03;0.75;;;20.10;85.60;;;;;;5071738;28;20449;-63
2022/09/15 11:23:51;;;;;;;3.65;0.82;;;19.90;87.80;;;;;;5083802;28;20048;-62
2022/09/15 11:26:41;;;;;;;4.15;0.60;;;19.50;91.00;;;;;;5068127;28;20052;-62
2022/09/15 11:29:15;;;;;;;3.70;0.80;;;18.20;95.80;;;;;;5078913;28;20052;-63
2022/09/15 11:31:47;;;;;;;1.85;0.70;;;17.50;97.40;;;;;;5074158;28;20067;-63
2022/09/15 11:34:22;;;;;;;3.40;0.65;;;17.00;98.30;;;;;;5088201;28;20040;-62
2022/09/15 11:37:04;;;;;;;3.95;0.85;;;16.70;99.70;;;;;;5070984;28;20044;-62
2022/09/15 11:39:35;;;;;;;8.50;0.98;;;16.80;99.90;;;;;;5089079;28;20051;-63
2022/09/15 11:42:05;;;;;;;4.15;0.80;;;16.80;99.90;;;;;;5091104;28;20433;-63
2022/09/15 11:44:36;;;;;;;5.43;0.90;;;16.90;99.90;;;;;;5089627;28;20042;-62
2022/09/15 11:47:23;;;;;;;2.05;0.60;;;17.10;99.90;;;;;;5088184;28;20044;-62
2022/09/15 11:49:54;;;;;;;1.63;0.50;;;17.30;99.90;;;;;;5078718;28;20071;-62
2022/09/15 11:53:03;;;;;;;3.47;0.55;;;17.60;99.90;;;;;;5090474;28;20040;-62
2022/09/15 11:55:58;;;;;;;1.58;0.45;;;18.30;99.00;;;;;;5083887;28;20055;-62
2022/09/15 11:58:35;;;;;;;1.98;0.50;;;18.90;97.10;;;;;;5092445;28;20524;-63
2022/09/15 12:01:06;;;;;;;2.17;0.63;;;19.20;97.30;;;;;;5092286;28;20036;-63
2022/09/15 12:03:58;;;;;;;1.13;0.40;;;19.40;96.30;;;;;;5076890;28;20055;-62
2022/09/15 12:06:42;;;;;;;2.38;0.63;;;19.50;94.00;;;;;;5084994;28;20036;-63
2022/09/15 12:09:18;;;;;;;1.45;0.55;;;19.70;94.20;;;;;;5092232;28;20411;-61
2022/09/15 12:11:46;;;;;;;2.95;0.50;;;20.00;94.10;;;;;;5080706;28;20033;-62
2022/09/15 12:14:33;;;;;;;1.55;0.30;;;20.30;93.80;;;;;;5084278;28;20375;-63
2022/09/15 12:16:59;;;;;;;0.75;0.30;;;20.50;88.60;;;;;;5080900;28;20131;-63
2022/09/15 12:19:51;;;;;;;1.23;0.30;;;20.40;90.50;;;;;;5091717;28;20032;-62
2022/09/15 12:22:37;;;;;;;2.13;0.45;;;20.50;85.50;;;;;;5091087;28;20044;-63
2022/09/15 12:25:16;;;;;;;4.15;0.60;;;20.60;85.00;;;;;;5091088;28;20040;-62
2022/09/15 12:27:42;;;;;;;1.27;0.30;;;20.70;86.50;;;;;;5090945;28;20552;-64
2022/09/15 12:30:37;;;;;;;1.42;0.60;;;20.70;85.80;;;;;;5091999;28;20118;-63
2022/09/15 12:33:41;;;;;;;1.90;0.43;;;20.80;80.60;;;;;;5090551;28;20035;-63
2022/09/15 12:36:44;;;;;;;2.65;0.55;;;20.80;80.80;;;;;;5079615;28;20044;-62
2022/09/15 12:39:27;;;;;;;2.80;0.40;;;20.60;81.60;;;;;;5090268;28;20043;-62
2022/09/15 12:41:59;;;;;;;2.10;0.60;;;20.50;83.00;;;;;;5084838;28;20407;-64
2022/09/15 12:44:49;;;;;;;3.65;0.80;;;20.40;83.70;;;;;;5088441;28;20048;-62
2022/09/15 12:47:20;;;;;;;2.70;0.60;;;20.40;82.00;;;;;;5082406;28;20040;-62
2022/09/15 12:49:48;;;;;;;3.08;0.68;;;20.40;82.80;;;;;;5090985;28;20036;-62
2022/09/15 12:52:15;;;;;;;2.35;0.45;;;20.40;82.90;;;;;;5088667;28;20506;-62
2022/09/15 12:54:42;;;;;;;2.28;0.50;;;20.50;82.20;;;;;;5091256;28;20094;-63
2022/09/15 12:57:37;;;;;;;3.05;0.50;;;20.70;80.60;;;;;;5090997;28;20072;-63
2022/09/15 13:00:27;;;;;;;1.95;0.50;;;21.60;77.20;;;;;;5093050;28;20032;-62
2022/09/15 13:02:54;;;;;;;2.83;0.90;;;22.50;74.20;;;;;;5083174;28;20086;-63
2022/09/15 13:05:41;;;;;;;5.15;0.90;;;23.00;74.10;;;;;;5089459;28;20040;-63
2022/09/15 13:08:14;;;;;;;4.78;0.77;;;23.00;71.20;;;;;;5090861;28;20039;-64
2022/09/15 13:11:03;;;;;;;2.40;0.77;;;22.60;71.20;;;;;;5090314;28;20075;-63
2022/09/15 13:13:53;;;;;;;2.05;0.50;;;22.30;70.10;;;;;;5087344;28;20036;-63